Masjed Soleyman, Iran
Current Conditions -  °F | °C
As of 4:00 AM on Tuesday 21 Oct 2014 (Local Time) from OIAW Reporting Station
Haze Haze  
Wind Chill: 20°   Ceiling: Unl
Heat Index: 20°   Visibility: 4mi
Dew Point: 18°   Wind: 9mph
Humidity: 88%   Direction: 310°NW
Pressure: 29.83"   Gusts: NA
Location:  31.94°N, 49.31°E
Report Text: OIAW 210100Z 31008KT 6000 BR SCT040 20/18 Q1010
Loading
Personal Weather Stations






























Interactive Weather Map
Tropical Storm Tracking
New forecast layout! Learn more

10-Day Weather Forecast

Advertisements
Track Severe Weather on mobile